Date,TemperatureHighF,TemperatureAvgF,TemperatureLowF,DewpointHighF,DewpointAvgF,DewpointLowF,HumidityHigh,HumidityAvg,HumidityLow,PressureMaxIn,PressureMinIn,WindSpeedMaxMPH,WindSpeedAvgMPH,GustSpeedMaxMPH,PrecipitationSumIn
2013-5-1,51.4,38.5,32.5,41.9,34.3,29.6,93,85,66,30.40,29.95,14,4,19,0.84
2013-5-2,55.4,43.0,35.1,36.9,29.4,25.1,79,61,33,30.54,30.36,18,7,24,0.00
2013-5-3,55.9,40.9,28.2,34.8,27.5,22.8,85,61,32,30.36,30.03,26,10,26,0.00
2013-5-4,42.6,40.1,36.7,39.4,35.7,29.8,94,84,64,30.12,30.00,13,5,15,0.05
2013-5-5,54.0,45.6,39.9,47.4,42.4,38.6,96,89,77,30.13,30.06,14,9,16,0.04
2013-5-6,67.1,52.4,45.1,50.9,45.3,40.2,90,78,48,30.11,29.99,9,4,11,0.00
2013-5-7,76.5,58.1,37.9,55.1,47.9,36.6,96,72,37,30.00,29.89,24,3,24,0.01
2013-5-8,69.1,59.3,54.1,61.3,56.4,52.5,97,90,71,29.91,29.85,10,2,12,0.33
2013-5-9,61.3,57.5,50.7,56.5,54.3,47.6,96,89,79,30.00,29.85,15,4,16,0.02
2013-5-10,69.6,56.1,44.6,53.1,46.9,40.3,92,73,45,30.07,29.93,18,6,18,0.00
2013-5-11,59.9,51.9,39.6,48.7,30.5,16.3,76,47,22,30.22,29.95,36,13,36,0.01
2013-5-12,67.5,49.6,28.4,32.0,23.7,16.7,76,42,17,30.22,30.03,11,3,23,0.00
2013-5-13,91.2,67.0,42.1,53.2,42.4,28.1,67,44,21,30.03,29.70,27,8,33,0.00
2013-5-14,104.4,79.0,56.3,61.1,47.3,34.1,82,41,13,29.74,29.54,30,9,34,0.04
2013-5-15,84.9,67.8,54.3,48.2,43.5,37.8,67,43,25,29.92,29.74,14,4,14,0.00
2013-5-16,87.6,66.7,50.2,60.4,51.5,41.8,92,63,25,29.85,29.70,33,5,34,0.79
2013-5-17,91.4,73.1,55.4,68.1,61.1,54.3,97,70,35,29.81,29.70,17,3,20,0.00
2013-5-18,88.7,75.1,62.1,65.7,61.4,57.2,87,64,43,29.86,29.64,11,3,14,0.00
2013-5-19,76.8,66.0,58.3,66.5,61.2,54.6,94,85,64,29.67,29.42,27,5,34,0.19
2013-5-20,72.5,63.1,55.2,59.2,55.3,52.9,95,77,56,29.54,29.43,23,10,27,0.01
2013-5-21,62.6,56.8,52.2,57.5,51.6,48.2,94,83,71,29.65,29.51,27,15,27,0.07
2013-5-22,57.6,53.5,50.2,51.9,49.6,48.0,96,87,76,29.95,29.64,22,12,24,0.04
2013-5-23,52.9,51.9,51.1,48.8,47.6,47.0,87,85,84,30.00,29.95,14,4,14,0.00
2013-5-24,77.2,62.6,44.2,51.3,45.7,37.7,80,56,38,30.21,29.99,9,4,9,0.00
2013-5-25,74.5,65.5,56.5,60.7,55.6,47.7,94,71,55,30.00,29.93,12,8,12,0.01
2013-5-26,68.9,59.1,52.9,62.1,55.4,50.6,95,88,75,29.97,29.81,21,10,21,0.08
2013-5-27,69.6,65.4,57.4,61.4,58.7,54.2,96,79,70,29.85,29.66,20,7,20,2.07
2013-5-28,79.9,67.1,56.1,64.0,58.9,54.1,95,77,51,29.69,29.57,18,5,19,0.00
2013-5-29,83.3,70.4,61.0,68.6,63.4,57.1,94,80,54,29.67,29.38,33,6,37,0.19
2013-5-30,79.5,68.8,61.2,65.9,59.3,51.2,93,73,43,29.51,29.40,31,9,34,0.09
2013-5-31,77.2,66.0,57.0,53.7,50.0,45.9,83,58,34,29.58,29.50,35,16,43,0.33